Time;durP1;ratioP1;P1;durP2;ratioP2;P2;SDS_P1;SDS_P2;PMS_P1;PMS_P2;Temp;Humidity;BMP_temperature;BMP_pressure;BME280_temperature;BME280_humidity;BME280_pressure;Samples;Min_cycle;Max_cycle;Signal;HPM_P1;HPM_P2
2022/02/28 00:00:34;;;;;;;1.58;1.48;;;2.10;99.90;;;;;;6315625;22;20018;-75
2022/02/28 00:03:02;;;;;;;0.15;0.15;;;2.10;99.90;;;;;;6314173;22;20383;-75
2022/02/28 00:05:29;;;;;;;0.10;0.10;;;2.10;99.90;;;;;;6315605;22;20010;-75
2022/02/28 00:07:55;;;;;;;0.10;0.10;;;2.10;99.90;;;;;;6303891;22;20011;-75
2022/02/28 00:10:22;;;;;;;0.10;0.10;;;2.10;99.90;;;;;;6305433;22;20481;-76
2022/02/28 00:12:48;;;;;;;0.40;0.40;;;2.10;99.90;;;;;;6315738;22;20022;-76
2022/02/28 00:15:16;;;;;;;0.10;0.10;;;2.00;99.90;;;;;;6315660;22;20008;-76
2022/02/28 00:17:42;;;;;;;0.10;0.10;;;1.90;99.90;;;;;;6313865;22;20447;-75
2022/02/28 00:20:12;;;;;;;5.03;2.67;;;1.90;99.90;;;;;;6304238;22;20003;-75
2022/02/28 00:22:39;;;;;;;0.10;0.10;;;1.90;99.90;;;;;;6315686;22;20068;-75
2022/02/28 00:25:07;;;;;;;0.13;0.13;;;1.80;99.90;;;;;;6304793;22;20046;-75
2022/02/28 00:27:34;;;;;;;0.10;0.10;;;1.70;99.90;;;;;;6316021;22;20416;-75
2022/02/28 00:30:00;;;;;;;0.10;0.10;;;1.70;99.90;;;;;;6315743;22;20011;-75
2022/02/28 00:32:26;;;;;;;0.10;0.10;;;1.80;99.90;;;;;;6305283;22;20132;-76
2022/02/28 00:34:53;;;;;;;0.25;0.25;;;1.80;99.90;;;;;;6317195;22;20011;-76
2022/02/28 00:37:19;;;;;;;0.10;0.10;;;1.70;99.90;;;;;;6315694;22;20003;-75
2022/02/28 00:39:46;;;;;;;0.10;0.10;;;1.60;99.90;;;;;;6315642;22;20003;-76
2022/02/28 00:42:15;;;;;;;0.38;0.38;;;1.60;99.90;;;;;;6315583;22;20026;-76
2022/02/28 00:44:41;;;;;;;3.30;1.27;;;1.60;99.90;;;;;;6315607;22;20084;-77
2022/02/28 00:47:07;;;;;;;0.30;0.30;;;1.60;99.90;;;;;;6315626;22;20034;-76
2022/02/28 00:49:34;;;;;;;0.10;0.10;;;1.70;99.90;;;;;;6306993;22;20010;-74
2022/02/28 00:52:00;;;;;;;0.10;0.10;;;1.80;99.90;;;;;;6305563;22;20478;-75
2022/02/28 00:54:27;;;;;;;0.10;0.10;;;1.80;99.90;;;;;;6279599;22;20015;-76
2022/02/28 00:56:55;;;;;;;0.90;0.85;;;1.80;99.90;;;;;;6315303;22;20070;-77
2022/02/28 00:59:21;;;;;;;0.22;0.22;;;1.80;99.90;;;;;;6315523;22;20057;-76
2022/02/28 01:01:47;;;;;;;0.10;0.10;;;1.80;99.90;;;;;;6307040;22;20042;-76
2022/02/28 01:04:12;;;;;;;0.65;0.60;;;1.80;99.90;;;;;;6305012;22;20088;-76
2022/02/28 01:06:39;;;;;;;0.20;0.20;;;1.90;99.90;;;;;;6315141;22;20011;-76
2022/02/28 01:09:05;;;;;;;0.20;0.20;;;2.00;99.90;;;;;;6306684;22;20033;-76
2022/02/28 01:11:32;;;;;;;0.10;0.10;;;2.00;99.90;;;;;;6305488;22;20007;-76
2022/02/28 01:13:57;;;;;;;0.10;0.10;;;2.00;99.90;;;;;;6315403;22;20027;-76
2022/02/28 01:16:24;;;;;;;0.10;0.10;;;2.00;99.90;;;;;;6315273;22;20033;-76
2022/02/28 01:18:50;;;;;;;0.10;0.10;;;1.90;99.90;;;;;;6315378;22;20540;-77
2022/02/28 01:21:17;;;;;;;0.13;0.13;;;1.80;99.90;;;;;;6315379;22;20011;-76
2022/02/28 01:23:43;;;;;;;0.10;0.10;;;1.50;99.90;;;;;;6306871;22;20007;-76
2022/02/28 01:26:09;;;;;;;0.10;0.10;;;1.50;99.90;;;;;;6316736;22;20003;-76
2022/02/28 01:28:35;;;;;;;0.13;0.13;;;1.40;99.90;;;;;;6315281;22;20026;-76
2022/02/28 01:31:01;;;;;;;0.10;0.10;;;1.40;99.90;;;;;;6315149;22;20022;-76
2022/02/28 01:33:27;;;;;;;0.30;0.30;;;1.20;99.90;;;;;;6279130;22;20340;-76
2022/02/28 01:35:53;;;;;;;1.50;1.33;;;1.20;99.90;;;;;;6316197;22;20007;-77
2022/02/28 01:38:18;;;;;;;0.38;0.38;;;1.20;99.90;;;;;;6316932;22;20003;-76
2022/02/28 01:40:44;;;;;;;0.30;0.30;;;0.80;99.90;;;;;;6316791;22;20046;-77
2022/02/28 01:43:10;;;;;;;0.10;0.10;;;0.80;99.90;;;;;;6316739;22;20015;-77
2022/02/28 01:45:36;;;;;;;0.13;0.13;;;0.80;99.90;;;;;;6316669;22;20043;-77
2022/02/28 01:48:02;;;;;;;1.42;1.33;;;0.50;99.90;;;;;;6316397;22;20038;-77
2022/02/28 01:50:28;;;;;;;1.92;1.75;;;0.70;99.90;;;;;;6314945;22;20312;-76
2022/02/28 01:52:54;;;;;;;0.20;0.20;;;0.80;99.90;;;;;;6314918;22;20003;-76
2022/02/28 01:55:23;;;;;;;0.10;0.10;;;0.80;99.90;;;;;;6316466;22;20018;-76
2022/02/28 01:57:50;;;;;;;0.13;0.13;;;0.70;99.90;;;;;;6304493;22;20003;-77
2022/02/28 02:00:23;;;;;;;0.15;0.15;;;0.70;99.90;;;;;;6306433;22;20007;-77
2022/02/28 02:02:50;;;;;;;0.10;0.10;;;0.60;99.90;;;;;;6316522;22;20003;-77
2022/02/28 02:05:15;;;;;;;0.52;0.52;;;0.60;99.90;;;;;;6315111;22;20011;-76
2022/02/28 02:07:41;;;;;;;0.10;0.10;;;0.60;99.90;;;;;;6289048;22;20537;-77
2022/02/28 02:10:11;;;;;;;6.30;1.38;;;0.60;99.90;;;;;;6314855;22;20316;-77
2022/02/28 02:12:38;;;;;;;0.10;0.10;;;0.60;99.90;;;;;;6314844;22;20042;-77
2022/02/28 02:15:09;;;;;;;0.10;0.10;;;0.60;99.90;;;;;;6315993;22;20347;-76
2022/02/28 02:17:36;;;;;;;0.15;0.15;;;0.50;99.90;;;;;;6316359;22;20118;-77
2022/02/28 02:20:32;;;;;;;0.10;0.10;;;0.60;99.90;;;;;;6314795;22;20068;-77
2022/02/28 02:23:06;;;;;;;0.30;0.30;;;0.60;99.90;;;;;;6316092;22;20141;-77
2022/02/28 02:25:33;;;;;;;1.42;1.35;;;0.60;99.90;;;;;;6279226;22;20047;-76
2022/02/28 02:27:59;;;;;;;0.10;0.10;;;0.40;99.90;;;;;;6314398;22;20007;-76
2022/02/28 02:30:25;;;;;;;0.17;0.17;;;0.40;99.90;;;;;;6306364;22;20088;-76
2022/02/28 02:32:51;;;;;;;1.75;1.65;;;0.40;99.90;;;;;;6314444;22;19999;-76
2022/02/28 02:35:18;;;;;;;0.10;0.10;;;0.40;99.90;;;;;;6278513;22;20011;-76
2022/02/28 02:37:44;;;;;;;0.10;0.10;;;0.40;99.90;;;;;;6314719;22;20015;-76
2022/02/28 02:40:12;;;;;;;1.17;1.08;;;0.40;99.90;;;;;;6314598;22;20011;-76
2022/02/28 02:42:38;;;;;;;0.32;0.32;;;0.40;99.90;;;;;;6304493;22;20019;-76
2022/02/28 02:45:05;;;;;;;0.10;0.10;;;0.30;99.90;;;;;;6316026;22;20003;-76
2022/02/28 02:47:30;;;;;;;0.20;0.20;;;0.30;99.90;;;;;;6313978;22;20023;-75
2022/02/28 02:49:56;;;;;;;0.20;0.20;;;0.20;99.90;;;;;;6315479;22;20019;-76
2022/02/28 02:52:22;;;;;;;1.15;1.10;;;0.30;99.90;;;;;;6316182;22;20091;-76
2022/02/28 02:54:48;;;;;;;0.10;0.10;;;0.10;99.90;;;;;;6316064;22;20011;-76
2022/02/28 02:57:16;;;;;;;0.10;0.10;;;0.10;99.90;;;;;;6316157;22;19999;-76
2022/02/28 02:59:42;;;;;;;0.20;0.20;;;0.00;99.90;;;;;;6316089;22;20003;-76
2022/02/28 03:02:08;;;;;;;4.25;3.33;;;0.00;99.90;;;;;;6315985;22;20064;-76
2022/02/28 03:04:34;;;;;;;0.20;0.20;;;0.00;99.90;;;;;;6314449;22;20327;-75
2022/02/28 03:06:59;;;;;;;0.73;0.73;;;0.00;99.90;;;;;;6315786;22;20007;-75
2022/02/28 03:09:25;;;;;;;0.13;0.13;;;0.00;99.90;;;;;;6315943;22;20014;-75
2022/02/28 03:11:51;;;;;;;0.10;0.10;;;-0.10;99.90;;;;;;6315929;22;20328;-75
2022/02/28 03:14:16;;;;;;;0.13;0.13;;;-0.10;99.90;;;;;;6315995;22;20002;-75
2022/02/28 03:16:42;;;;;;;0.10;0.10;;;-0.10;99.90;;;;;;6315886;22;20056;-75
2022/02/28 03:19:08;;;;;;;0.10;0.10;;;-0.10;99.90;;;;;;6315601;22;20015;-75
2022/02/28 03:21:34;;;;;;;0.10;0.10;;;-0.10;99.90;;;;;;6315864;22;20416;-75
2022/02/28 03:23:59;;;;;;;0.10;0.10;;;-0.10;99.90;;;;;;6314242;22;20018;-75
2022/02/28 03:26:25;;;;;;;0.10;0.10;;;-0.10;99.90;;;;;;6306590;22;20014;-75
2022/02/28 03:28:51;;;;;;;0.40;0.40;;;-0.10;99.90;;;;;;6314206;22;20015;-75
2022/02/28 03:31:17;;;;;;;0.70;0.70;;;-0.10;99.90;;;;;;6314303;22;20014;-75
2022/02/28 03:33:43;;;;;;;0.10;0.10;;;-0.10;99.90;;;;;;6305374;22;20018;-75
2022/02/28 03:36:09;;;;;;;0.10;0.10;;;-0.20;99.90;;;;;;6315767;22;20003;-77
2022/02/28 03:38:34;;;;;;;1.55;0.73;;;-0.30;99.90;;;;;;6306024;22;20076;-76
2022/02/28 03:41:00;;;;;;;2.45;1.85;;;-0.30;99.90;;;;;;6315903;22;20008;-75
2022/02/28 03:43:26;;;;;;;0.10;0.10;;;-0.20;99.90;;;;;;6315877;22;19999;-76
2022/02/28 03:45:51;;;;;;;0.10;0.10;;;-0.10;99.90;;;;;;6315902;22;20011;-76
2022/02/28 03:48:17;;;;;;;0.68;0.68;;;-0.20;99.90;;;;;;6315858;22;19999;-75
2022/02/28 03:50:43;;;;;;;0.75;0.75;;;-0.60;99.90;;;;;;6314153;22;20423;-76
2022/02/28 03:53:09;;;;;;;0.30;0.30;;;-0.50;99.90;;;;;;6315691;22;20003;-76
2022/02/28 03:55:35;;;;;;;0.10;0.10;;;-0.60;99.90;;;;;;6305909;22;20011;-76
2022/02/28 03:58:00;;;;;;;1.55;1.35;;;-0.60;99.90;;;;;;6303669;22;20011;-76
2022/02/28 04:00:26;;;;;;;0.15;0.15;;;-0.70;99.90;;;;;;6316230;22;20014;-76
2022/02/28 04:02:52;;;;;;;0.20;0.20;;;-1.00;99.90;;;;;;6317785;22;20031;-76
2022/02/28 04:05:19;;;;;;;0.10;0.10;;;-0.90;99.90;;;;;;6316184;22;20011;-76
2022/02/28 04:07:47;;;;;;;0.40;0.40;;;-0.70;99.90;;;;;;6317978;22;20440;-76
2022/02/28 04:10:15;;;;;;;0.10;0.10;;;-0.70;99.90;;;;;;6317131;22;20485;-76
2022/02/28 04:12:41;;;;;;;0.10;0.10;;;-0.70;99.90;;;;;;6317727;22;20003;-76
2022/02/28 04:15:07;;;;;;;0.10;0.10;;;-0.60;99.90;;;;;;6317479;22;20340;-76
2022/02/28 04:17:33;;;;;;;0.17;0.17;;;-0.50;99.90;;;;;;6316052;22;20034;-76
2022/02/28 04:19:59;;;;;;;0.10;0.10;;;-0.50;99.90;;;;;;6289982;22;20106;-75
2022/02/28 04:22:25;;;;;;;0.10;0.10;;;-0.40;99.90;;;;;;6305563;22;20145;-77
2022/02/28 04:24:51;;;;;;;0.10;0.10;;;-0.70;99.90;;;;;;6317414;22;20619;-75
2022/02/28 04:27:16;;;;;;;0.30;0.30;;;-0.70;99.90;;;;;;6305660;22;20007;-76
2022/02/28 04:29:42;;;;;;;0.28;0.28;;;-0.70;99.90;;;;;;6305880;22;20424;-75
2022/02/28 04:32:08;;;;;;;0.10;0.10;;;-0.70;99.90;;;;;;6315871;22;20053;-75
2022/02/28 04:34:34;;;;;;;0.10;0.10;;;-0.50;99.90;;;;;;6315846;22;20034;-75
2022/02/28 04:37:00;;;;;;;0.30;0.30;;;-0.50;99.90;;;;;;6317410;22;20057;-75
2022/02/28 04:39:26;;;;;;;6.35;3.40;;;-0.50;99.90;;;;;;6317469;22;20022;-75
2022/02/28 04:41:52;;;;;;;0.50;0.47;;;-0.50;99.90;;;;;;6305436;22;19999;-76
2022/02/28 04:44:17;;;;;;;1.77;0.75;;;-0.40;99.90;;;;;;6315801;22;20007;-75
2022/02/28 04:46:43;;;;;;;0.10;0.10;;;-0.40;99.90;;;;;;6317468;22;20003;-76
2022/02/28 04:49:09;;;;;;;0.63;0.63;;;-0.30;99.90;;;;;;6316748;22;20040;-75
2022/02/28 04:51:35;;;;;;;0.10;0.10;;;-0.30;99.90;;;;;;6306870;22;20092;-76
2022/02/28 04:54:00;;;;;;;0.10;0.10;;;-0.30;99.90;;;;;;6305228;22;20007;-75
2022/02/28 04:56:26;;;;;;;4.75;2.20;;;-0.30;99.90;;;;;;6317313;22;20378;-75
2022/02/28 04:58:52;;;;;;;0.10;0.10;;;-0.30;99.90;;;;;;6304563;22;20007;-76
2022/02/28 05:01:18;;;;;;;0.80;0.80;;;-0.30;99.90;;;;;;6279312;22;20011;-75
2022/02/28 05:03:44;;;;;;;0.10;0.10;;;-0.30;99.90;;;;;;6306596;22;20018;-75
2022/02/28 05:06:10;;;;;;;0.17;0.17;;;-0.40;99.90;;;;;;6253714;22;20017;-76
2022/02/28 05:08:35;;;;;;;0.10;0.10;;;-0.40;99.90;;;;;;6315731;22;20359;-73
2022/02/28 05:11:01;;;;;;;0.10;0.10;;;-0.50;99.90;;;;;;6314846;22;20011;-73
2022/02/28 05:13:28;;;;;;;0.20;0.20;;;-0.80;99.90;;;;;;6304488;22;20011;-75
2022/02/28 05:15:54;;;;;;;0.10;0.10;;;-0.70;99.90;;;;;;6316669;22;20424;-73
2022/02/28 05:18:22;;;;;;;0.10;0.10;;;-0.70;99.90;;;;;;6307163;22;20012;-73
2022/02/28 05:20:48;;;;;;;0.10;0.10;;;-1.00;99.90;;;;;;6279643;22;20045;-72
2022/02/28 05:23:13;;;;;;;0.10;0.10;;;-1.00;99.90;;;;;;6289447;22;20011;-75
2022/02/28 05:25:39;;;;;;;0.10;0.10;;;-1.00;99.90;;;;;;6305141;22;20019;-76
2022/02/28 05:28:08;;;;;;;0.20;0.20;;;-1.10;99.90;;;;;;6316087;22;20015;-75
2022/02/28 05:30:33;;;;;;;0.10;0.10;;;-1.20;99.90;;;;;;6315286;22;20007;-78
2022/02/28 05:32:59;;;;;;;0.30;0.30;;;-1.20;99.90;;;;;;6289384;22;20086;-77
2022/02/28 05:35:25;;;;;;;0.10;0.10;;;-1.10;99.90;;;;;;6289497;22;20015;-75
2022/02/28 05:37:51;;;;;;;0.28;0.28;;;-1.00;99.90;;;;;;6315332;22;20456;-76
2022/02/28 05:40:16;;;;;;;0.20;0.20;;;-1.10;99.90;;;;;;6314967;22;20033;-78
2022/02/28 05:42:42;;;;;;;0.10;0.10;;;-1.10;99.90;;;;;;6316987;22;20075;-75
2022/02/28 05:45:09;;;;;;;0.10;0.10;;;-1.10;99.90;;;;;;6316303;22;20003;-73
2022/02/28 05:47:35;;;;;;;0.10;0.10;;;-1.00;99.90;;;;;;6305263;22;20015;-74
2022/02/28 05:50:01;;;;;;;1.00;0.95;;;-0.90;99.90;;;;;;6316044;22;20011;-76
2022/02/28 05:52:27;;;;;;;0.10;0.10;;;-0.90;99.90;;;;;;6316806;22;20060;-75
2022/02/28 05:54:52;;;;;;;0.10;0.10;;;-0.90;99.90;;;;;;6316515;22;20010;-75
2022/02/28 05:57:18;;;;;;;0.20;0.20;;;-0.70;99.90;;;;;;6316424;22;20012;-76
2022/02/28 05:59:44;;;;;;;0.30;0.30;;;-0.70;99.90;;;;;;6304682;22;20011;-74
2022/02/28 06:02:09;;;;;;;0.10;0.10;;;-0.70;99.90;;;;;;6316354;22;20042;-74
2022/02/28 06:04:35;;;;;;;0.10;0.10;;;-0.80;99.90;;;;;;6316430;22;20007;-75
2022/02/28 06:07:01;;;;;;;0.10;0.10;;;-0.60;99.90;;;;;;6316431;22;20000;-74
2022/02/28 06:09:27;;;;;;;0.85;0.85;;;-0.70;99.90;;;;;;6316447;22;20017;-74
2022/02/28 06:11:52;;;;;;;0.10;0.10;;;-0.60;99.90;;;;;;6316487;22;20046;-73
2022/02/28 06:14:18;;;;;;;0.10;0.10;;;-0.60;99.90;;;;;;6305705;22;20002;-74
2022/02/28 06:16:44;;;;;;;0.10;0.10;;;-0.70;99.90;;;;;;6316345;22;20447;-75
2022/02/28 06:19:10;;;;;;;0.20;0.20;;;-0.80;99.90;;;;;;6306257;22;20011;-74
2022/02/28 06:21:35;;;;;;;1.80;1.70;;;-1.00;99.90;;;;;;6306061;22;20060;-75
2022/02/28 06:24:01;;;;;;;0.68;0.68;;;-1.00;99.90;;;;;;6306244;22;20107;-75
2022/02/28 06:26:27;;;;;;;0.10;0.10;;;-0.90;99.90;;;;;;6306221;22;20043;-75
2022/02/28 06:28:53;;;;;;;0.17;0.17;;;-1.00;99.90;;;;;;6316012;22;20018;-74
2022/02/28 06:31:20;;;;;;;0.15;0.15;;;-0.90;99.90;;;;;;6316180;22;20022;-76
2022/02/28 06:33:46;;;;;;;3.97;3.67;;;-0.90;99.90;;;;;;6306359;22;20385;-75
2022/02/28 06:36:12;;;;;;;0.17;0.17;;;-0.80;99.90;;;;;;6316081;22;20018;-75
2022/02/28 06:38:38;;;;;;;0.20;0.20;;;-0.70;99.90;;;;;;6316190;22;20018;-75
2022/02/28 06:41:04;;;;;;;0.10;0.10;;;-0.70;99.90;;;;;;6316034;22;20030;-75
2022/02/28 06:43:30;;;;;;;0.35;0.35;;;-0.50;99.90;;;;;;6316100;22;20061;-70
2022/02/28 06:45:56;;;;;;;0.30;0.30;;;-0.50;99.90;;;;;;6315928;22;20034;-75
2022/02/28 06:48:23;;;;;;;2.00;1.45;;;-0.50;99.90;;;;;;6305972;22;20018;-75
2022/02/28 06:50:50;;;;;;;0.15;0.15;;;-0.40;99.90;;;;;;6315904;22;20015;-75
2022/02/28 06:53:18;;;;;;;0.10;0.10;;;-0.50;99.90;;;;;;6304369;22;20464;-68
2022/02/28 06:55:52;;;;;;;0.10;0.10;;;-0.50;99.90;;;;;;6314380;22;20018;-68
2022/02/28 06:58:21;;;;;;;0.10;0.10;;;-0.50;99.90;;;;;;6315790;22;20022;-68
2022/02/28 07:00:56;;;;;;;3.42;3.15;;;-0.50;99.90;;;;;;6305826;22;19999;-68
2022/02/28 07:03:23;;;;;;;0.20;0.20;;;-0.40;99.90;;;;;;6305889;22;20042;-68
2022/02/28 07:05:52;;;;;;;0.50;0.50;;;-0.30;99.90;;;;;;6305893;22;20008;-68
2022/02/28 07:08:19;;;;;;;0.20;0.20;;;-0.30;99.90;;;;;;6314090;22;20466;-68
2022/02/28 07:10:46;;;;;;;0.30;0.30;;;-0.20;99.90;;;;;;6314354;22;20011;-68
2022/02/28 07:13:13;;;;;;;3.53;3.20;;;-0.10;99.90;;;;;;6314109;22;20007;-68
2022/02/28 07:15:44;;;;;;;0.20;0.20;;;-0.10;99.90;;;;;;6305802;22;20034;-69
2022/02/28 07:18:11;;;;;;;0.10;0.10;;;0.00;99.90;;;;;;6315715;22;20011;-68
2022/02/28 07:20:37;;;;;;;0.45;0.45;;;0.10;99.90;;;;;;6305864;22;20253;-68
2022/02/28 07:23:05;;;;;;;0.70;0.70;;;0.20;99.90;;;;;;6313936;22;20038;-68
2022/02/28 07:25:32;;;;;;;0.10;0.10;;;0.30;99.90;;;;;;6278464;22;20026;-68
2022/02/28 07:27:58;;;;;;;0.80;0.80;;;0.40;99.90;;;;;;6304344;22;20027;-68
2022/02/28 07:30:24;;;;;;;0.20;0.20;;;0.40;99.90;;;;;;6314263;22;20392;-67
2022/02/28 07:32:50;;;;;;;0.85;0.75;;;0.50;99.90;;;;;;6315479;22;20018;-68
2022/02/28 07:35:22;;;;;;;0.10;0.10;;;0.60;99.90;;;;;;6279854;22;20015;-68
2022/02/28 07:37:48;;;;;;;2.47;1.30;;;0.70;99.90;;;;;;6307775;22;20068;-68
2022/02/28 07:40:14;;;;;;;0.10;0.10;;;0.80;99.90;;;;;;6317590;22;20705;-68
2022/02/28 07:42:41;;;;;;;0.10;0.10;;;0.90;99.90;;;;;;6316071;22;20140;-69
2022/02/28 07:45:08;;;;;;;0.50;0.50;;;1.00;99.90;;;;;;6307360;22;20125;-68
2022/02/28 07:47:34;;;;;;;0.20;0.20;;;1.10;99.90;;;;;;6307879;22;20090;-70
2022/02/28 07:50:00;;;;;;;0.10;0.10;;;1.20;99.90;;;;;;6317439;22;20051;-69
2022/02/28 07:52:26;;;;;;;1.40;1.30;;;1.30;99.90;;;;;;6307293;22;20018;-68
2022/02/28 07:54:55;;;;;;;0.17;0.17;;;1.40;99.90;;;;;;6307617;22;20031;-70
2022/02/28 07:57:20;;;;;;;0.10;0.10;;;1.50;99.90;;;;;;6305461;22;20456;-69
2022/02/28 07:59:46;;;;;;;0.10;0.10;;;1.70;99.90;;;;;;6307440;22;20003;-69
2022/02/28 08:02:12;;;;;;;0.47;0.47;;;1.90;99.90;;;;;;6317102;22;20003;-69
2022/02/28 08:04:38;;;;;;;0.40;0.40;;;2.00;99.90;;;;;;6315565;22;20014;-68
2022/02/28 08:07:04;;;;;;;0.10;0.10;;;2.10;99.90;;;;;;6305684;22;20003;-69
2022/02/28 08:09:31;;;;;;;0.10;0.10;;;2.30;99.90;;;;;;6315961;22;20476;-68
2022/02/28 08:11:58;;;;;;;3.15;2.95;;;2.50;99.90;;;;;;6306013;22;20077;-68
2022/02/28 08:14:24;;;;;;;1.45;1.38;;;2.60;99.90;;;;;;6315778;22;20057;-68
2022/02/28 08:16:50;;;;;;;0.10;0.10;;;2.70;99.90;;;;;;6306069;22;20047;-71
2022/02/28 08:19:17;;;;;;;0.10;0.10;;;2.80;99.90;;;;;;6317415;22;20007;-69
2022/02/28 08:21:44;;;;;;;0.82;0.82;;;2.80;99.90;;;;;;6315747;22;20007;-68
2022/02/28 08:24:10;;;;;;;2.28;2.10;;;2.90;99.90;;;;;;6305898;22;20007;-69
2022/02/28 08:26:35;;;;;;;0.10;0.10;;;3.00;99.90;;;;;;6305972;22;20014;-69
2022/02/28 08:29:02;;;;;;;0.10;0.10;;;3.10;99.90;;;;;;6317136;22;20018;-69
2022/02/28 08:31:28;;;;;;;0.10;0.10;;;3.20;99.90;;;;;;6317561;22;20029;-68
2022/02/28 08:33:53;;;;;;;0.10;0.10;;;3.40;99.90;;;;;;6315692;22;20440;-68
2022/02/28 08:36:19;;;;;;;0.20;0.20;;;3.50;99.90;;;;;;6307254;22;20325;-68
2022/02/28 08:38:45;;;;;;;0.10;0.10;;;3.60;99.90;;;;;;6305698;22;20007;-68
2022/02/28 08:41:11;;;;;;;0.13;0.13;;;3.90;99.90;;;;;;6305606;22;20502;-68
2022/02/28 08:43:37;;;;;;;0.15;0.15;;;4.00;99.90;;;;;;6317186;22;20009;-68
2022/02/28 08:46:04;;;;;;;0.13;0.13;;;4.10;99.90;;;;;;6305956;22;20061;-69
2022/02/28 08:48:30;;;;;;;0.57;0.25;;;4.20;99.90;;;;;;6315661;22;20091;-69
2022/02/28 08:50:56;;;;;;;0.15;0.15;;;4.20;99.90;;;;;;6305173;22;20043;-69
2022/02/28 08:53:22;;;;;;;0.77;0.77;;;4.30;99.90;;;;;;6315497;22;20082;-68
2022/02/28 08:55:48;;;;;;;0.15;0.15;;;4.40;99.90;;;;;;6316632;22;20370;-69
2022/02/28 08:58:13;;;;;;;1.10;1.10;;;4.50;99.90;;;;;;6315156;22;20057;-68
2022/02/28 09:00:40;;;;;;;2.42;2.15;;;4.70;99.90;;;;;;6306716;22;20018;-69
2022/02/28 09:03:07;;;;;;;0.20;0.20;;;4.80;99.90;;;;;;6317211;22;20014;-69
2022/02/28 09:05:36;;;;;;;0.63;0.63;;;4.90;99.90;;;;;;6316915;22;20003;-69
2022/02/28 09:08:03;;;;;;;0.35;0.35;;;4.90;99.90;;;;;;6315443;22;20014;-69
2022/02/28 09:10:29;;;;;;;2.45;2.28;;;5.00;99.90;;;;;;6314929;22;20378;-69
2022/02/28 09:12:54;;;;;;;0.00;0.00;;;5.10;99.90;;;;;;6306917;22;20004;-68
2022/02/28 09:15:21;;;;;;;0.10;0.10;;;5.30;99.40;;;;;;6306184;22;20011;-71
2022/02/28 09:17:46;;;;;;;0.10;0.10;;;5.60;99.70;;;;;;6306473;22;20034;-72
2022/02/28 09:20:12;;;;;;;0.10;0.10;;;5.60;99.50;;;;;;6315157;22;20372;-72
2022/02/28 09:22:41;;;;;;;0.80;0.63;;;5.70;99.60;;;;;;6305296;22;20042;-72
2022/02/28 09:25:08;;;;;;;0.30;0.30;;;5.80;99.40;;;;;;6315029;22;20110;-72
2022/02/28 09:27:34;;;;;;;0.08;0.08;;;6.00;98.00;;;;;;6315307;22;20080;-72
2022/02/28 09:30:01;;;;;;;1.10;0.80;;;6.20;96.80;;;;;;6305006;22;20007;-72
2022/02/28 09:32:27;;;;;;;0.10;0.10;;;6.30;96.40;;;;;;6316669;22;20019;-71
2022/02/28 09:34:53;;;;;;;0.25;0.25;;;6.60;98.70;;;;;;6304383;22;20030;-71
2022/02/28 09:37:18;;;;;;;0.10;0.10;;;6.50;96.30;;;;;;6316059;22;20003;-72
2022/02/28 09:39:44;;;;;;;0.10;0.10;;;6.70;96.00;;;;;;6304651;22;20046;-72
2022/02/28 09:42:11;;;;;;;1.00;1.00;;;6.90;95.70;;;;;;6306557;22;20438;-73
2022/02/28 09:44:38;;;;;;;0.10;0.10;;;6.90;94.50;;;;;;6316441;22;20014;-72
2022/02/28 09:47:05;;;;;;;0.22;0.22;;;7.10;94.40;;;;;;6305189;22;20064;-71
2022/02/28 09:49:31;;;;;;;0.30;0.30;;;7.40;94.60;;;;;;6304694;22;20082;-70
2022/02/28 09:51:56;;;;;;;0.60;0.60;;;7.30;93.20;;;;;;6316735;22;20027;-72
2022/02/28 09:54:22;;;;;;;0.40;0.40;;;7.30;93.10;;;;;;6316484;22;20007;-71
2022/02/28 09:56:49;;;;;;;0.47;0.47;;;7.50;93.50;;;;;;6316407;22;20038;-71
2022/02/28 09:59:19;;;;;;;0.25;0.25;;;7.50;92.70;;;;;;6306456;22;20014;-71
2022/02/28 10:01:46;;;;;;;0.57;0.57;;;7.40;93.40;;;;;;6305262;22;20011;-71
2022/02/28 10:04:16;;;;;;;0.28;0.28;;;7.50;93.50;;;;;;6315014;22;20082;-71
2022/02/28 10:06:43;;;;;;;1.27;1.17;;;7.90;93.00;;;;;;6304889;22;20011;-71
2022/02/28 10:09:18;;;;;;;0.10;0.10;;;8.10;92.10;;;;;;6316236;22;20039;-71
2022/02/28 10:11:49;;;;;;;0.10;0.10;;;8.40;91.80;;;;;;6315287;22;20007;-72
2022/02/28 10:14:16;;;;;;;0.85;0.85;;;8.50;90.60;;;;;;6288961;22;20083;-72
2022/02/28 10:16:46;;;;;;;0.30;0.30;;;8.40;90.60;;;;;;6315107;22;20003;-71
2022/02/28 10:19:29;;;;;;;0.70;0.70;;;8.30;89.70;;;;;;6316282;22;20014;-71
2022/02/28 10:22:06;;;;;;;1.75;1.65;;;8.30;90.00;;;;;;6316301;22;20082;-72
2022/02/28 10:24:40;;;;;;;0.25;0.25;;;8.20;90.10;;;;;;6314720;22;20442;-73
2022/02/28 10:27:14;;;;;;;0.98;0.98;;;8.30;89.80;;;;;;6315083;22;20337;-73
2022/02/28 10:29:43;;;;;;;0.68;0.68;;;8.50;88.50;;;;;;6289900;22;20011;-72
2022/02/28 10:32:10;;;;;;;1.55;1.45;;;8.60;87.90;;;;;;6314673;22;20059;-73
2022/02/28 10:35:59;;;;;;;2.92;2.17;;;8.70;88.20;;;;;;6316125;22;20104;-71
2022/02/28 10:37:24;;;;;;;0.10;0.10;;;8.70;88.20;;;;;;6304191;22;20432;-72
2022/02/28 10:40:01;;;;;;;2.75;2.20;;;8.80;88.20;;;;;;6306099;22;20007;-71
2022/02/28 10:42:47;;;;;;;0.00;0.00;;;8.80;86.70;;;;;;6316003;22;20003;-72
2022/02/28 10:45:24;;;;;;;0.13;0.13;;;9.10;83.00;;;;;;6304366;22;20003;-71
2022/02/28 10:47:53;;;;;;;0.88;0.88;;;9.40;83.60;;;;;;6306356;22;20007;-71
2022/02/28 10:50:38;;;;;;;5.72;2.13;;;9.40;83.30;;;;;;6312729;22;20022;-72
2022/02/28 10:53:11;;;;;;;0.25;0.25;;;9.10;82.10;;;;;;6313168;22;20086;-71
2022/02/28 10:55:37;;;;;;;0.30;0.30;;;9.60;80.60;;;;;;6314409;22;20007;-71
2022/02/28 10:58:30;;;;;;;0.70;0.70;;;9.70;79.50;;;;;;6314220;22;20034;-71
2022/02/28 11:01:06;;;;;;;0.10;0.10;;;10.00;81.40;;;;;;6315878;22;20102;-71
2022/02/28 11:03:50;;;;;;;0.32;0.32;;;9.80;81.10;;;;;;6316279;22;20022;-71
2022/02/28 11:06:22;;;;;;;4.63;1.77;;;10.00;78.70;;;;;;6278230;22;20007;-71
2022/02/28 11:08:48;;;;;;;2.80;2.63;;;10.10;78.70;;;;;;6315540;22;20082;-71
2022/02/28 11:11:16;;;;;;;1.25;0.75;;;10.10;76.10;;;;;;6305683;22;20003;-71
2022/02/28 11:13:43;;;;;;;1.15;1.10;;;10.10;77.20;;;;;;6316146;22;20003;-71
2022/02/28 11:16:09;;;;;;;1.45;1.35;;;10.20;77.70;;;;;;6304061;22;20008;-71
2022/02/28 11:18:37;;;;;;;0.40;0.40;;;10.60;78.20;;;;;;6305719;22;20004;-71
2022/02/28 11:21:03;;;;;;;4.05;1.55;;;10.70;75.10;;;;;;6314472;22;20034;-71
2022/02/28 11:23:29;;;;;;;1.90;0.60;;;10.50;74.20;;;;;;6314188;22;20007;-71
2022/02/28 11:25:57;;;;;;;0.75;0.75;;;10.70;75.40;;;;;;6314016;22;20080;-71
2022/02/28 11:28:23;;;;;;;1.05;0.75;;;10.80;75.00;;;;;;6315670;22;20056;-72
2022/02/28 11:30:49;;;;;;;23.20;1.75;;;10.90;74.10;;;;;;6313852;22;20078;-72
2022/02/28 11:33:16;;;;;;;0.10;0.10;;;10.60;73.70;;;;;;6314291;22;20084;-73
2022/02/28 11:35:53;;;;;;;0.00;0.00;;;10.50;73.10;;;;;;6314065;22;20004;-67
2022/02/28 11:38:18;;;;;;;0.30;0.30;;;11.20;72.90;;;;;;6303686;22;20022;-75
2022/02/28 11:41:03;;;;;;;2.20;1.75;;;11.30;72.80;;;;;;6305190;22;20007;-69
2022/02/28 11:43:52;;;;;;;0.20;0.20;;;11.20;71.80;;;;;;6315710;22;20004;-69
2022/02/28 11:46:24;;;;;;;0.35;0.35;;;11.30;72.00;;;;;;6314040;22;20439;-72
2022/02/28 11:48:57;;;;;;;0.50;0.50;;;11.70;72.80;;;;;;6304521;22;20018;-78
2022/02/28 11:51:31;;;;;;;0.35;0.35;;;11.80;71.20;;;;;;6303781;22;20015;-73
2022/02/28 11:54:02;;;;;;;0.10;0.10;;;11.60;70.00;;;;;;6304422;22;20015;-71
2022/02/28 11:56:31;;;;;;;0.38;0.38;;;11.90;73.80;;;;;;6315867;22;20007;-77
2022/02/28 11:59:13;;;;;;;0.20;0.20;;;11.60;68.40;;;;;;6315866;22;20007;-72
2022/02/28 12:01:47;;;;;;;0.00;0.00;;;11.80;71.00;;;;;;6303869;22;20018;-78
2022/02/28 12:04:19;;;;;;;0.95;0.88;;;12.10;68.60;;;;;;6315572;22;20003;-73
2022/02/28 12:07:01;;;;;;;0.13;0.13;;;11.80;68.30;;;;;;6304002;22;20011;-73
2022/02/28 12:09:33;;;;;;;0.30;0.30;;;12.00;69.90;;;;;;6315596;22;20015;-72
2022/02/28 12:12:33;;;;;;;0.00;0.00;;;12.00;68.50;;;;;;6305262;22;20078;-73
2022/02/28 12:15:05;;;;;;;0.57;0.57;;;13.30;68.30;;;;;;6315347;22;20092;-73
2022/02/28 12:17:34;;;;;;;0.15;0.15;;;13.20;63.30;;;;;;6305193;22;20573;-73
2022/02/28 12:20:21;;;;;;;0.00;0.00;;;12.40;63.20;;;;;;6316467;22;20013;-73
2022/02/28 12:22:53;;;;;;;0.05;0.05;;;12.20;65.40;;;;;;6317345;22;20313;-72
2022/02/28 12:25:52;;;;;;;3.30;2.05;;;12.20;67.40;;;;;;6317622;22;20007;-72
2022/02/28 12:28:36;;;;;;;0.82;0.45;;;12.50;66.60;;;;;;6317387;22;20086;-73
2022/02/28 12:31:09;;;;;;;0.90;0.80;;;15.20;63.80;;;;;;6307248;22;20090;-73
2022/02/28 12:33:35;;;;;;;0.00;0.00;;;15.40;61.60;;;;;;6307227;22;20350;-73
2022/02/28 12:36:16;;;;;;;1.75;1.65;;;14.20;61.10;;;;;;6317173;22;20007;-73
2022/02/28 12:38:55;;;;;;;2.47;1.55;;;13.90;60.60;;;;;;6305593;22;20464;-72
2022/02/28 12:41:28;;;;;;;1.25;0.98;;;13.30;59.40;;;;;;6317189;22;20343;-73
2022/02/28 12:43:57;;;;;;;0.20;0.20;;;14.60;60.60;;;;;;6317240;22;20007;-72
2022/02/28 12:46:35;;;;;;;0.00;0.00;;;14.00;60.10;;;;;;6317252;22;20007;-72
2022/02/28 12:49:02;;;;;;;1.05;1.02;;;14.40;62.70;;;;;;6317211;22;20084;-72
2022/02/28 12:51:31;;;;;;;0.52;0.52;;;13.90;60.80;;;;;;6306653;22;20077;-73
2022/02/28 12:54:14;;;;;;;0.00;0.00;;;14.60;61.10;;;;;;6307209;22;20007;-72
2022/02/28 12:56:55;;;;;;;0.55;0.52;;;15.90;59.10;;;;;;6305585;22;20054;-72